createdAt,value
2018-08-13T00:00:56.716Z,21.40
2018-08-13T00:02:01.159Z,21.40
2018-08-13T00:03:06.113Z,21.40
2018-08-13T00:04:10.435Z,21.40
2018-08-13T00:05:14.689Z,21.30
2018-08-13T00:06:18.898Z,21.30
2018-08-13T00:07:23.321Z,21.30
2018-08-13T00:10:24.235Z,21.30
2018-08-13T00:11:29.063Z,21.30
2018-08-13T00:12:33.974Z,21.30
2018-08-13T00:13:39.272Z,21.30
2018-08-13T00:14:43.979Z,21.20
2018-08-13T00:15:48.722Z,21.20
2018-08-13T00:16:53.380Z,21.20
2018-08-13T00:17:58.012Z,21.20
2018-08-13T00:19:02.651Z,21.20
2018-08-13T00:20:07.447Z,21.20
2018-08-13T00:21:12.081Z,21.20
2018-08-13T00:22:16.816Z,21.10
2018-08-13T00:23:22.046Z,21.10
2018-08-13T00:24:27.024Z,21.60
2018-08-13T00:25:32.026Z,21.50
2018-08-13T00:26:36.649Z,21.10
2018-08-13T00:27:41.620Z,21.10
2018-08-13T00:28:46.293Z,21.10
2018-08-13T00:29:51.218Z,21.10
2018-08-13T00:30:55.908Z,21.10
2018-08-13T00:32:00.590Z,21.10
2018-08-13T00:33:06.299Z,21.10
2018-08-13T00:34:12.231Z,21.10
2018-08-13T00:35:17.759Z,21.10
2018-08-13T00:36:22.426Z,21.10
2018-08-13T00:37:27.346Z,21.10
2018-08-13T00:38:31.979Z,21.10
2018-08-13T00:39:36.594Z,21.10
2018-08-13T00:40:41.202Z,21.10
2018-08-13T00:41:45.862Z,21.10
2018-08-13T00:42:51.046Z,21.10
2018-08-13T00:44:02.494Z,21.10
2018-08-13T00:45:09.749Z,21.10
2018-08-13T00:46:14.812Z,21.10
2018-08-13T00:47:19.799Z,21.10
2018-08-13T00:48:24.455Z,21.10
2018-08-13T00:49:29.493Z,21.10
2018-08-13T00:50:34.551Z,21.10
2018-08-13T00:51:39.179Z,21.00
2018-08-13T00:52:44.721Z,21.00
2018-08-13T00:53:49.617Z,21.00
2018-08-13T00:54:54.551Z,21.00
2018-08-13T00:55:59.487Z,21.00
2018-08-13T00:57:04.760Z,21.00
2018-08-13T00:58:09.449Z,21.00
2018-08-13T00:59:14.545Z,21.00
2018-08-13T01:00:21.076Z,21.00
2018-08-13T01:01:26.047Z,21.00
2018-08-13T01:02:30.693Z,21.00
2018-08-13T01:03:35.657Z,21.00
2018-08-13T01:04:40.230Z,21.00
2018-08-13T01:05:45.159Z,21.00
2018-08-13T01:06:49.746Z,21.00
2018-08-13T01:07:54.746Z,21.00
2018-08-13T01:08:59.303Z,21.00
2018-08-13T01:10:04.729Z,21.00
2018-08-13T01:11:09.857Z,21.00
2018-08-13T01:12:14.541Z,21.00
2018-08-13T01:13:19.403Z,21.00
2018-08-13T01:14:24.175Z,21.00
2018-08-13T01:15:29.090Z,21.00
2018-08-13T01:16:33.811Z,21.00
2018-08-13T01:17:38.839Z,20.90
2018-08-13T01:18:43.524Z,21.00
2018-08-13T01:19:48.626Z,20.90
2018-08-13T01:20:53.380Z,20.90
2018-08-13T01:21:58.166Z,20.90
2018-08-13T01:23:03.166Z,20.90
2018-08-13T01:24:08.211Z,20.80
2018-08-13T01:25:15.851Z,20.80
2018-08-13T01:26:20.507Z,20.80
2018-08-13T01:27:30.200Z,20.80
2018-08-13T01:28:34.916Z,20.80
2018-08-13T01:29:39.722Z,20.80
2018-08-13T01:30:44.701Z,20.80
2018-08-13T01:31:55.444Z,20.80
2018-08-13T01:33:00.344Z,20.80
2018-08-13T01:34:10.910Z,20.80
2018-08-13T01:35:16.355Z,20.80
2018-08-13T01:36:21.510Z,20.80
2018-08-13T01:37:26.797Z,20.80
2018-08-13T01:38:31.383Z,20.80
2018-08-13T01:39:36.355Z,20.80
2018-08-13T01:40:41.619Z,20.80
2018-08-13T01:41:46.271Z,20.70
2018-08-13T01:42:50.913Z,20.70
2018-08-13T01:43:55.819Z,20.60
2018-08-13T01:45:00.677Z,20.70
2018-08-13T01:46:05.643Z,20.70
2018-08-13T01:47:10.213Z,20.60
2018-08-13T01:48:14.742Z,20.60
2018-08-13T01:49:19.439Z,20.60
2018-08-13T01:50:24.466Z,20.60
2018-08-13T01:51:29.262Z,20.60
2018-08-13T01:52:34.781Z,20.60
2018-08-13T01:53:42.802Z,20.60
2018-08-13T01:54:47.801Z,20.50
2018-08-13T01:55:52.429Z,20.60
2018-08-13T01:56:57.575Z,20.60
2018-08-13T01:58:02.182Z,20.60
2018-08-13T01:59:06.809Z,20.60
2018-08-13T02:00:14.803Z,20.60
2018-08-13T02:01:19.614Z,20.60
2018-08-13T02:02:24.549Z,20.70
2018-08-13T02:03:29.669Z,20.70
2018-08-13T02:04:34.507Z,20.70
2018-08-13T02:05:39.731Z,20.70
2018-08-13T02:06:44.311Z,20.60
2018-08-13T02:07:49.321Z,20.70
2018-08-13T02:08:54.391Z,20.60
2018-08-13T02:09:59.402Z,20.60
2018-08-13T02:11:04.705Z,20.60
2018-08-13T02:12:10.359Z,20.60
2018-08-13T02:13:15.276Z,20.50
2018-08-13T02:14:20.115Z,20.50
2018-08-13T02:15:25.489Z,20.50
2018-08-13T02:16:30.547Z,20.50
2018-08-13T02:17:35.632Z,20.50
2018-08-13T02:18:40.355Z,20.50
2018-08-13T02:19:45.368Z,20.50
2018-08-13T02:20:50.642Z,20.50
2018-08-13T02:21:55.766Z,20.50
2018-08-13T02:23:00.832Z,20.50
2018-08-13T02:24:05.871Z,20.40
2018-08-13T02:25:10.489Z,20.40
2018-08-13T02:26:15.938Z,20.40
2018-08-13T02:27:21.331Z,20.40
2018-08-13T02:28:26.246Z,20.40
2018-08-13T02:29:31.482Z,20.40
2018-08-13T02:30:36.437Z,20.30
2018-08-13T02:31:41.331Z,20.30
2018-08-13T02:32:46.760Z,20.30
2018-08-13T02:33:51.692Z,20.30
2018-08-13T02:34:56.296Z,20.30
2018-08-13T02:36:00.910Z,20.40
2018-08-13T02:37:05.563Z,20.40
2018-08-13T02:38:10.347Z,20.40
2018-08-13T02:39:15.096Z,20.40
2018-08-13T02:40:20.141Z,20.40
2018-08-13T02:41:25.079Z,20.40
2018-08-13T02:42:29.931Z,20.40
2018-08-13T02:43:34.866Z,20.30
2018-08-13T02:44:39.907Z,20.30
2018-08-13T02:45:44.751Z,20.30
2018-08-13T02:46:49.306Z,20.30
2018-08-13T02:47:54.341Z,20.30
2018-08-13T02:48:59.560Z,20.30
2018-08-13T02:50:05.717Z,20.30
2018-08-13T02:51:10.284Z,20.30
2018-08-13T02:52:15.008Z,20.30
2018-08-13T02:53:19.590Z,20.20
2018-08-13T02:54:24.388Z,20.20
2018-08-13T02:55:29.292Z,20.20
2018-08-13T02:56:34.526Z,20.20
2018-08-13T02:57:39.372Z,20.20
2018-08-13T02:58:43.986Z,20.10
2018-08-13T02:59:48.588Z,20.10
2018-08-13T03:00:53.280Z,20.20
2018-08-13T03:01:58.522Z,20.20
2018-08-13T03:03:03.352Z,20.20
2018-08-13T03:04:08.471Z,20.20
2018-08-13T03:05:13.677Z,20.20
2018-08-13T03:06:18.648Z,20.30
2018-08-13T03:07:23.636Z,20.30
2018-08-13T03:08:29.181Z,20.30
2018-08-13T03:09:34.107Z,20.30
2018-08-13T03:10:38.769Z,20.40
2018-08-13T03:11:43.460Z,20.40
2018-08-13T03:12:48.070Z,20.40
2018-08-13T03:13:53.300Z,20.40
2018-08-13T03:14:58.006Z,20.40
2018-08-13T03:16:02.939Z,20.50
2018-08-13T03:17:08.057Z,20.50
2018-08-13T03:18:13.261Z,20.50
2018-08-13T03:19:17.983Z,20.50
2018-08-13T03:20:23.310Z,20.60
2018-08-13T03:21:28.031Z,20.60
2018-08-13T03:22:32.608Z,20.60
2018-08-13T03:23:37.417Z,20.60
2018-08-13T03:24:42.194Z,20.60
2018-08-13T03:25:47.090Z,20.70
2018-08-13T03:26:53.066Z,20.70
2018-08-13T03:27:57.730Z,20.70
2018-08-13T03:29:02.433Z,20.70
2018-08-13T03:30:10.267Z,20.70
2018-08-13T03:31:15.528Z,20.70
2018-08-13T03:32:20.292Z,20.70
2018-08-13T03:33:25.156Z,20.70
2018-08-13T03:34:29.847Z,20.70
2018-08-13T03:35:34.695Z,20.70
2018-08-13T03:36:39.303Z,20.70
2018-08-13T03:37:44.112Z,20.60
2018-08-13T03:38:48.752Z,20.70
2018-08-13T03:39:53.364Z,20.70
2018-08-13T03:40:58.060Z,20.70
2018-08-13T03:42:02.749Z,20.70
2018-08-13T03:43:07.618Z,20.70
2018-08-13T03:44:13.076Z,20.80
2018-08-13T03:45:17.773Z,20.80
2018-08-13T03:46:22.392Z,20.80
2018-08-13T03:47:27.148Z,20.80
2018-08-13T03:48:31.914Z,20.90
2018-08-13T03:49:36.546Z,20.80
2018-08-13T03:50:41.278Z,20.80
2018-08-13T03:51:45.898Z,20.80
2018-08-13T03:52:50.768Z,20.80
2018-08-13T03:53:55.497Z,20.80
2018-08-13T03:55:00.473Z,20.90
2018-08-13T03:56:05.493Z,20.90
2018-08-13T03:57:10.081Z,20.90
2018-08-13T03:58:14.704Z,20.90
2018-08-13T03:59:19.288Z,21.00
2018-08-13T04:00:25.736Z,21.00
2018-08-13T04:01:30.939Z,21.00
2018-08-13T04:02:38.036Z,21.00
2018-08-13T04:03:42.985Z,21.00
2018-08-13T04:04:47.678Z,21.00
2018-08-13T04:05:52.287Z,21.00
2018-08-13T04:06:57.260Z,21.00
2018-08-13T04:08:01.993Z,21.00
2018-08-13T04:09:08.978Z,21.00
2018-08-13T04:10:14.087Z,21.00
2018-08-13T04:11:18.787Z,21.00
2018-08-13T04:12:23.446Z,21.00
2018-08-13T04:13:28.009Z,21.00
2018-08-13T04:14:32.681Z,21.00
2018-08-13T04:15:37.564Z,21.00
2018-08-13T04:16:42.191Z,21.00
2018-08-13T04:17:47.323Z,21.00
2018-08-13T04:18:52.011Z,20.90
2018-08-13T04:19:56.696Z,20.90
2018-08-13T04:21:01.283Z,20.90
2018-08-13T04:22:06.029Z,20.90
2018-08-13T04:23:11.143Z,20.90
2018-08-13T04:24:15.702Z,20.90
2018-08-13T04:25:22.190Z,20.80
2018-08-13T04:26:26.894Z,20.80
2018-08-13T04:27:31.633Z,20.70
2018-08-13T04:28:36.385Z,20.60
2018-08-13T04:29:42.723Z,20.60
2018-08-13T04:30:47.349Z,20.40
2018-08-13T04:31:52.053Z,20.40
2018-08-13T04:32:56.655Z,20.30
2018-08-13T04:34:01.394Z,20.30
2018-08-13T04:35:06.472Z,20.20
2018-08-13T04:36:11.346Z,20.20
2018-08-13T04:37:16.053Z,20.20
2018-08-13T04:38:20.696Z,20.20
2018-08-13T04:39:25.728Z,20.20
2018-08-13T04:40:33.768Z,20.10
2018-08-13T04:41:38.463Z,20.10
2018-08-13T04:42:44.540Z,20.00
2018-08-13T04:44:19.827Z,20.00
2018-08-13T04:45:24.431Z,19.90
2018-08-13T04:46:29.076Z,19.90
2018-08-13T04:47:33.739Z,19.90
2018-08-13T04:48:38.455Z,19.80
2018-08-13T04:49:43.214Z,19.90
2018-08-13T04:50:48.464Z,19.90
2018-08-13T04:51:53.383Z,19.90
2018-08-13T04:52:58.109Z,19.90
2018-08-13T04:54:02.879Z,19.90
2018-08-13T04:55:09.049Z,19.90
2018-08-13T04:56:13.722Z,19.90
2018-08-13T04:57:18.546Z,19.90
2018-08-13T04:58:23.468Z,19.90
2018-08-13T04:59:28.143Z,19.90
2018-08-13T05:00:32.817Z,19.80
2018-08-13T05:01:37.659Z,19.80
2018-08-13T05:02:42.844Z,19.80
2018-08-13T05:03:47.971Z,19.80
2018-08-13T05:04:52.836Z,19.90
2018-08-13T05:05:57.458Z,19.90
2018-08-13T05:07:02.037Z,19.90
2018-08-13T05:08:06.913Z,19.90
2018-08-13T05:09:11.865Z,19.90
2018-08-13T05:10:16.494Z,19.80
2018-08-13T05:11:21.151Z,19.90
2018-08-13T05:12:25.738Z,19.90
2018-08-13T05:13:30.424Z,19.90
2018-08-13T05:14:35.381Z,19.90
2018-08-13T05:15:40.342Z,19.90
2018-08-13T05:16:45.119Z,19.90
2018-08-13T05:17:49.808Z,19.90
2018-08-13T05:18:54.463Z,19.90
2018-08-13T05:19:59.528Z,19.90
2018-08-13T05:21:04.280Z,19.90
2018-08-13T05:22:09.027Z,19.90
2018-08-13T05:23:13.653Z,19.80
2018-08-13T05:24:18.546Z,19.80
2018-08-13T05:25:23.220Z,19.80
2018-08-13T05:26:28.203Z,19.80
2018-08-13T05:27:32.900Z,19.80
2018-08-13T05:28:37.655Z,19.90
2018-08-13T05:29:42.339Z,19.90
2018-08-13T05:30:47.303Z,19.90
2018-08-13T05:31:52.319Z,19.90
2018-08-13T05:32:56.997Z,21.00
2018-08-13T05:34:01.731Z,19.90
2018-08-13T05:35:07.546Z,19.90
2018-08-13T05:36:12.219Z,19.80
2018-08-13T05:37:17.262Z,19.80
2018-08-13T05:38:22.060Z,19.80
2018-08-13T05:39:26.648Z,19.90
2018-08-13T05:40:31.280Z,19.90
2018-08-13T05:41:36.062Z,19.90
2018-08-13T05:42:40.999Z,20.00
2018-08-13T05:43:45.668Z,20.00
2018-08-13T05:44:50.440Z,20.00
2018-08-13T05:45:55.174Z,20.00
2018-08-13T05:46:59.866Z,20.00
2018-08-13T05:48:04.884Z,20.00
2018-08-13T05:49:09.562Z,20.00
2018-08-13T05:50:14.359Z,20.00
2018-08-13T05:51:19.236Z,20.00
2018-08-13T05:52:23.942Z,20.00
2018-08-13T05:53:28.997Z,20.00
2018-08-13T05:54:33.652Z,19.90
2018-08-13T05:55:40.114Z,19.80
2018-08-13T05:56:44.891Z,19.80
2018-08-13T05:57:49.720Z,19.80
2018-08-13T05:58:54.414Z,19.80
2018-08-13T05:59:59.074Z,19.80
2018-08-13T06:01:03.804Z,19.20
2018-08-13T06:02:08.660Z,19.70
2018-08-13T06:03:13.602Z,19.70
2018-08-13T06:04:18.241Z,19.70
2018-08-13T06:05:22.891Z,19.50
2018-08-13T06:06:28.267Z,19.40
2018-08-13T06:07:32.965Z,19.40
2018-08-13T06:08:37.800Z,19.30
2018-08-13T06:09:44.348Z,19.30
2018-08-13T06:10:49.068Z,19.30
2018-08-13T06:11:54.083Z,19.30
2018-08-13T06:12:58.992Z,19.30
2018-08-13T06:14:04.605Z,19.30
2018-08-13T06:15:11.209Z,19.20
2018-08-13T06:16:15.843Z,19.20
2018-08-13T06:17:20.600Z,19.20
2018-08-13T06:18:25.356Z,19.20
2018-08-13T06:19:29.970Z,19.20
2018-08-13T06:20:34.766Z,19.20
2018-08-13T06:21:40.034Z,19.10
2018-08-13T06:22:45.387Z,19.10
2018-08-13T06:23:50.410Z,19.10
2018-08-13T06:24:55.928Z,19.10
2018-08-13T06:26:00.642Z,19.00
2018-08-13T06:27:06.788Z,19.00
2018-08-13T06:28:11.478Z,19.00
2018-08-13T06:29:16.127Z,19.00
2018-08-13T06:30:20.963Z,19.00
2018-08-13T06:31:25.683Z,19.10
2018-08-13T06:32:30.483Z,19.00
2018-08-13T06:33:35.306Z,19.00
2018-08-13T06:34:40.220Z,19.10
2018-08-13T06:35:46.009Z,19.10
2018-08-13T06:36:50.686Z,19.10
2018-08-13T06:37:55.428Z,19.10
2018-08-13T06:39:00.442Z,19.20
2018-08-13T06:40:05.829Z,19.20
2018-08-13T06:41:10.637Z,19.20
2018-08-13T06:42:15.647Z,19.20
2018-08-13T06:43:20.324Z,19.20
2018-08-13T06:44:25.008Z,19.20
2018-08-13T06:45:30.004Z,19.20
2018-08-13T06:46:35.124Z,19.30
2018-08-13T06:47:41.909Z,19.30
2018-08-13T06:48:46.917Z,19.40
2018-08-13T06:49:51.807Z,19.40
2018-08-13T06:50:56.516Z,19.40
2018-08-13T06:52:01.406Z,19.40
2018-08-13T06:53:06.340Z,19.40
2018-08-13T06:54:11.045Z,19.40
2018-08-13T06:55:15.848Z,19.40
2018-08-13T06:56:20.746Z,19.40
2018-08-13T06:57:25.424Z,19.40
2018-08-13T06:58:30.187Z,19.50
2018-08-13T06:59:34.981Z,19.50
2018-08-13T07:00:39.630Z,19.40
2018-08-13T07:01:44.407Z,19.40
2018-08-13T07:02:49.122Z,19.50
2018-08-13T07:03:53.899Z,19.50
2018-08-13T07:04:58.747Z,19.50
2018-08-13T07:06:03.699Z,19.50
2018-08-13T07:07:08.792Z,19.50
2018-08-13T07:08:13.976Z,19.50
2018-08-13T07:09:18.681Z,19.60
2018-08-13T07:10:23.500Z,19.60
2018-08-13T07:11:28.615Z,19.60
2018-08-13T07:12:33.491Z,19.60
2018-08-13T07:13:38.283Z,19.60
2018-08-13T07:14:43.159Z,19.50
2018-08-13T07:15:48.084Z,19.50
2018-08-13T07:16:53.023Z,19.50
2018-08-13T07:17:59.499Z,19.50
2018-08-13T07:19:08.861Z,19.50
2018-08-13T07:20:17.953Z,19.50
2018-08-13T07:21:26.382Z,19.50
2018-08-13T07:22:34.067Z,19.50
2018-08-13T07:23:39.245Z,19.50
2018-08-13T07:24:44.192Z,19.50
2018-08-13T07:25:49.001Z,19.50
2018-08-13T07:26:54.515Z,19.50
2018-08-13T07:27:59.356Z,19.40
2018-08-13T07:29:04.632Z,19.50
2018-08-13T07:30:13.079Z,19.40
2018-08-13T07:31:18.918Z,19.40
2018-08-13T07:32:23.939Z,19.30
2018-08-13T07:33:28.746Z,19.30
2018-08-13T07:34:33.767Z,19.30
2018-08-13T07:35:39.338Z,19.30
2018-08-13T07:36:44.102Z,19.30
2018-08-13T07:37:49.380Z,19.30
2018-08-13T07:38:54.090Z,19.40
2018-08-13T07:39:58.923Z,19.40
2018-08-13T07:41:04.120Z,19.30
2018-08-13T07:42:09.212Z,19.40
2018-08-13T07:43:14.426Z,19.40
2018-08-13T07:44:50.290Z,19.40
2018-08-13T07:45:58.966Z,19.40
2018-08-13T07:47:04.272Z,19.40
2018-08-13T07:48:09.319Z,19.50
2018-08-13T07:49:14.211Z,19.50
2018-08-13T07:50:19.028Z,19.50
2018-08-13T07:51:23.850Z,19.50
2018-08-13T07:52:28.654Z,19.50
2018-08-13T07:53:33.590Z,19.50
2018-08-13T07:54:38.417Z,19.50
2018-08-13T07:55:48.008Z,19.50
2018-08-13T07:56:52.879Z,19.50
2018-08-13T07:57:57.769Z,19.50
2018-08-13T07:59:02.886Z,19.50
2018-08-13T08:00:09.280Z,19.50
2018-08-13T08:01:14.254Z,19.50
2018-08-13T08:02:19.301Z,19.60
2018-08-13T08:03:24.398Z,19.50
2018-08-13T08:04:29.403Z,19.50
2018-08-13T08:05:34.252Z,19.60
2018-08-13T08:06:39.030Z,19.60
2018-08-13T08:07:44.027Z,19.70
2018-08-13T08:08:49.015Z,19.70
2018-08-13T08:09:54.011Z,19.70
2018-08-13T08:10:58.901Z,19.70
2018-08-13T08:12:03.868Z,19.70
2018-08-13T08:13:09.242Z,19.70
2018-08-13T08:14:14.306Z,19.70
2018-08-13T08:15:20.351Z,19.60
2018-08-13T08:16:25.389Z,19.70
2018-08-13T08:17:31.879Z,19.60
2018-08-13T08:18:37.044Z,19.50
2018-08-13T08:19:42.118Z,19.60
2018-08-13T08:20:47.363Z,19.60
2018-08-13T08:21:52.724Z,19.60
2018-08-13T08:22:58.388Z,19.60
2018-08-13T08:24:03.788Z,19.60
2018-08-13T08:25:20.110Z,19.60
2018-08-13T08:26:25.598Z,19.70
2018-08-13T08:27:32.179Z,19.70
2018-08-13T08:28:38.248Z,19.70
2018-08-13T08:30:10.071Z,19.70
2018-08-13T08:31:29.521Z,19.80
2018-08-13T08:32:36.565Z,19.90
2018-08-13T08:33:42.487Z,19.90
2018-08-13T08:34:51.522Z,19.90
2018-08-13T08:35:59.626Z,20.00
2018-08-13T08:37:05.292Z,20.00
2018-08-13T08:38:10.777Z,20.10
2018-08-13T08:39:16.471Z,20.10
2018-08-13T08:40:22.225Z,20.10
2018-08-13T08:41:27.313Z,20.10
2018-08-13T08:42:32.706Z,20.10
2018-08-13T08:43:39.685Z,20.10
2018-08-13T08:44:44.706Z,20.10
2018-08-13T08:45:53.293Z,20.20
2018-08-13T08:47:03.389Z,20.00
2018-08-13T08:48:12.298Z,20.10
2018-08-13T08:49:20.095Z,20.10
2018-08-13T08:50:25.332Z,20.10
2018-08-13T08:51:31.232Z,20.10
2018-08-13T08:52:36.149Z,20.10
2018-08-13T08:53:41.551Z,20.10
2018-08-13T08:54:46.678Z,20.20
2018-08-13T08:55:57.004Z,20.20
2018-08-13T08:57:09.225Z,20.20
2018-08-13T08:58:23.395Z,20.20
2018-08-13T08:59:32.016Z,20.20
2018-08-13T09:00:37.252Z,20.20
2018-08-13T09:01:42.371Z,20.20
2018-08-13T09:02:47.919Z,20.20
2018-08-13T09:03:53.866Z,20.20
2018-08-13T09:05:01.166Z,20.30
2018-08-13T09:06:14.000Z,20.30
2018-08-13T09:07:32.102Z,20.40
2018-08-13T09:08:39.527Z,20.40
2018-08-13T09:09:45.201Z,20.50
2018-08-13T09:10:51.258Z,20.50
2018-08-13T09:11:56.359Z,20.60
2018-08-13T09:13:02.337Z,20.60
2018-08-13T09:14:11.646Z,20.70
2018-08-13T09:15:18.308Z,20.70
2018-08-13T09:16:23.523Z,20.70
2018-08-13T09:17:38.836Z,20.70
2018-08-13T09:18:55.214Z,20.80
2018-08-13T09:20:14.267Z,20.80
2018-08-13T09:21:32.363Z,20.70
2018-08-13T09:22:47.988Z,20.70
2018-08-13T09:24:04.151Z,20.70
2018-08-13T09:25:21.548Z,20.70
2018-08-13T09:26:37.408Z,20.60
2018-08-13T09:27:53.967Z,20.60
2018-08-13T09:29:11.108Z,20.60
2018-08-13T09:30:27.028Z,20.50
2018-08-13T09:31:42.424Z,20.60
2018-08-13T09:32:58.818Z,20.60
2018-08-13T09:34:14.525Z,20.60
2018-08-13T09:35:27.580Z,20.60
2018-08-13T09:36:32.913Z,20.70
2018-08-13T09:37:40.302Z,20.70
2018-08-13T09:38:48.639Z,20.70
2018-08-13T09:39:53.648Z,20.80
2018-08-13T09:40:58.945Z,20.80
2018-08-13T09:42:03.947Z,20.80
2018-08-13T09:43:09.140Z,20.70
2018-08-13T09:44:14.144Z,20.70
2018-08-13T09:45:19.446Z,20.70
2018-08-13T09:46:25.094Z,20.60
2018-08-13T09:47:30.238Z,20.60
2018-08-13T09:48:38.204Z,20.60
2018-08-13T09:49:43.210Z,20.60
2018-08-13T09:50:48.358Z,20.60
2018-08-13T09:51:53.171Z,20.60
2018-08-13T09:52:58.127Z,20.50
2018-08-13T09:54:03.119Z,20.50
2018-08-13T09:55:08.838Z,20.50
2018-08-13T09:56:15.258Z,20.40
2018-08-13T09:57:21.049Z,20.40
2018-08-13T09:58:26.315Z,20.50
2018-08-13T09:59:31.196Z,20.50
2018-08-13T10:01:10.471Z,20.50
2018-08-13T10:02:15.470Z,20.50
2018-08-13T10:03:21.186Z,20.50
2018-08-13T10:04:26.920Z,20.60
2018-08-13T10:05:31.784Z,20.60
2018-08-13T10:06:39.808Z,20.60
2018-08-13T10:07:45.357Z,20.60
2018-08-13T10:08:50.932Z,20.50
2018-08-13T10:09:56.543Z,20.60
2018-08-13T10:11:03.270Z,20.60
2018-08-13T10:12:09.056Z,20.60
2018-08-13T10:13:14.037Z,20.50
2018-08-13T10:14:18.886Z,20.60
2018-08-13T10:15:26.003Z,20.60
2018-08-13T10:16:34.445Z,20.60
2018-08-13T10:17:43.352Z,20.60
2018-08-13T10:18:50.172Z,20.60
2018-08-13T10:19:55.084Z,20.50
2018-08-13T10:21:02.060Z,20.50
2018-08-13T10:22:07.706Z,20.40
2018-08-13T10:23:12.851Z,20.40
2018-08-13T10:24:17.767Z,20.30
2018-08-13T10:25:22.687Z,20.30
2018-08-13T10:26:27.766Z,20.20
2018-08-13T10:27:33.023Z,20.20
2018-08-13T10:28:39.613Z,20.20
2018-08-13T10:29:44.838Z,20.20
2018-08-13T10:30:50.254Z,20.20
2018-08-13T10:31:55.424Z,20.20
2018-08-13T10:33:00.730Z,20.20
2018-08-13T10:34:06.135Z,20.30
2018-08-13T10:35:11.527Z,20.30
2018-08-13T10:36:16.675Z,20.30
2018-08-13T10:37:23.243Z,20.30
2018-08-13T10:38:28.276Z,20.40
2018-08-13T10:39:33.023Z,20.40
2018-08-13T10:40:37.705Z,20.40
2018-08-13T10:41:42.741Z,20.40
2018-08-13T10:42:48.081Z,20.30
2018-08-13T10:43:53.902Z,20.30
2018-08-13T10:44:58.987Z,20.30
2018-08-13T10:46:05.958Z,20.20
2018-08-13T10:47:10.817Z,20.20
2018-08-13T10:48:18.475Z,20.20
2018-08-13T10:49:25.224Z,20.20
2018-08-13T10:50:34.652Z,20.20
2018-08-13T10:51:40.007Z,20.30
2018-08-13T10:53:08.811Z,20.30
2018-08-13T10:54:14.165Z,20.40
2018-08-13T10:55:19.005Z,20.60
2018-08-13T10:56:24.423Z,20.70
2018-08-13T10:57:29.675Z,20.90
2018-08-13T10:58:35.792Z,21.10
2018-08-13T10:59:40.719Z,21.20
2018-08-13T11:00:45.828Z,21.40
2018-08-13T11:01:50.803Z,21.60
2018-08-13T11:02:55.576Z,21.80
2018-08-13T11:04:00.223Z,21.90
2018-08-13T11:05:06.446Z,22.00
2018-08-13T11:06:12.494Z,21.90
2018-08-13T11:07:17.276Z,21.90
2018-08-13T11:08:23.423Z,21.80
2018-08-13T11:09:28.177Z,21.80
2018-08-13T11:10:32.902Z,21.70
2018-08-13T11:11:37.735Z,21.70
2018-08-13T11:12:42.789Z,21.70
2018-08-13T11:13:47.429Z,21.60
2018-08-13T11:14:52.106Z,21.60
2018-08-13T11:16:01.422Z,21.60
2018-08-13T11:17:06.549Z,21.60
2018-08-13T11:18:11.343Z,21.70
2018-08-13T11:19:16.207Z,21.60
2018-08-13T11:20:21.207Z,21.70
2018-08-13T11:21:25.996Z,21.70
2018-08-13T11:22:30.745Z,21.70
2018-08-13T11:23:38.137Z,21.60
2018-08-13T11:24:43.367Z,21.60
2018-08-13T11:25:48.245Z,21.70
2018-08-13T11:26:53.246Z,21.70
2018-08-13T11:27:58.230Z,21.70
2018-08-13T11:29:03.129Z,21.80
2018-08-13T11:30:09.922Z,21.80
2018-08-13T11:31:14.877Z,22.10
2018-08-13T11:32:19.592Z,22.40
2018-08-13T11:33:25.697Z,22.60
2018-08-13T11:34:31.367Z,23.20
2018-08-13T11:35:36.576Z,23.70
2018-08-13T11:36:41.352Z,23.70
2018-08-13T11:37:46.075Z,23.80
2018-08-13T11:38:51.076Z,24.00
2018-08-13T11:39:55.852Z,24.20
2018-08-13T11:41:00.694Z,24.30
2018-08-13T11:42:05.849Z,24.30
2018-08-13T11:43:10.618Z,24.50
2018-08-13T11:44:15.529Z,24.70
2018-08-13T11:45:22.050Z,25.70
2018-08-13T11:46:27.301Z,27.60
2018-08-13T11:47:32.189Z,29.20
2018-08-13T11:48:38.135Z,31.10
2018-08-13T11:49:42.873Z,32.30
2018-08-13T11:50:47.678Z,33.90
2018-08-13T11:51:52.667Z,35.20
2018-08-13T11:52:57.699Z,35.80
2018-08-13T11:54:03.227Z,34.90
2018-08-13T11:55:10.372Z,33.90
2018-08-13T11:56:15.325Z,32.80
2018-08-13T11:57:20.083Z,31.80
2018-08-13T11:58:29.515Z,32.00
2018-08-13T11:59:34.919Z,31.20
2018-08-13T12:00:39.751Z,30.30
2018-08-13T12:01:44.662Z,29.80
2018-08-13T12:02:49.769Z,29.00
2018-08-13T12:03:55.128Z,28.60
2018-08-13T12:06:05.691Z,27.50
2018-08-13T12:07:10.799Z,27.90
2018-08-13T12:08:15.909Z,29.20
2018-08-13T12:09:21.668Z,29.70
2018-08-13T12:10:26.447Z,31.00
2018-08-13T12:11:31.268Z,31.30
2018-08-13T12:12:36.082Z,30.90
2018-08-13T12:13:40.959Z,30.60
2018-08-13T12:15:04.537Z,30.30
2018-08-13T12:16:09.965Z,29.90
2018-08-13T12:17:15.103Z,29.60
2018-08-13T12:18:19.964Z,29.10
2018-08-13T12:19:24.952Z,28.80
2018-08-13T12:20:29.893Z,28.40
2018-08-13T12:21:34.546Z,27.90
2018-08-13T12:22:39.522Z,27.40
2018-08-13T12:23:44.767Z,27.20
2018-08-13T12:24:49.491Z,26.80
2018-08-13T12:25:54.747Z,26.40
2018-08-13T12:26:59.656Z,26.10
2018-08-13T12:28:04.918Z,25.80
2018-08-13T12:29:09.842Z,25.60
2018-08-13T12:30:14.743Z,25.40
2018-08-13T12:31:19.538Z,24.70
2018-08-13T12:32:24.330Z,24.60
2018-08-13T12:33:31.046Z,24.40
2018-08-13T12:34:36.298Z,24.00
2018-08-13T12:35:41.090Z,24.00
2018-08-13T12:36:45.915Z,23.60
2018-08-13T12:37:53.889Z,23.10
2018-08-13T12:39:13.426Z,22.80
2018-08-13T12:40:18.317Z,22.50
2018-08-13T12:41:23.084Z,22.20
2018-08-13T12:42:27.789Z,21.80
2018-08-13T12:43:32.617Z,21.50
2018-08-13T12:44:38.217Z,21.50
2018-08-13T12:45:43.959Z,21.30
2018-08-13T12:46:48.730Z,21.30
2018-08-13T12:47:53.375Z,21.20
2018-08-13T12:48:58.289Z,21.10
2018-08-13T12:50:03.842Z,21.10
2018-08-13T12:51:10.675Z,21.20
2018-08-13T12:52:16.308Z,21.10
2018-08-13T12:53:21.106Z,21.10
2018-08-13T12:54:26.032Z,21.00
2018-08-13T12:55:30.818Z,20.90
2018-08-13T12:56:35.596Z,20.90
2018-08-13T12:57:40.924Z,20.80
2018-08-13T12:58:45.625Z,20.80
2018-08-13T12:59:50.522Z,20.50
2018-08-13T13:00:59.120Z,20.80
2018-08-13T13:02:04.392Z,20.80
2018-08-13T13:03:09.354Z,20.80
2018-08-13T13:04:14.174Z,20.70
2018-08-13T13:05:19.473Z,20.70
2018-08-13T13:06:24.222Z,20.70
2018-08-13T13:07:29.279Z,20.70
2018-08-13T13:08:34.416Z,20.60
2018-08-13T13:09:39.168Z,20.80
2018-08-13T13:11:48.020Z,20.80
2018-08-13T13:12:53.257Z,20.90
2018-08-13T13:13:58.519Z,21.00
2018-08-13T13:15:04.497Z,21.20
2018-08-13T13:16:46.928Z,21.40
2018-08-13T13:18:02.895Z,21.50
2018-08-13T13:19:08.420Z,21.70
2018-08-13T13:20:16.619Z,22.00
2018-08-13T13:21:22.746Z,22.10
2018-08-13T13:22:28.492Z,22.20
2018-08-13T13:23:34.309Z,22.30
2018-08-13T13:24:39.545Z,22.30
2018-08-13T13:25:49.961Z,22.40
2018-08-13T13:27:05.156Z,22.30
2018-08-13T13:28:11.194Z,22.30
2018-08-13T13:29:17.788Z,22.30
2018-08-13T13:30:27.325Z,22.20
2018-08-13T13:31:33.145Z,22.20
2018-08-13T13:32:37.780Z,22.00
2018-08-13T13:33:42.912Z,22.00
2018-08-13T13:34:47.816Z,21.90
2018-08-13T13:36:05.730Z,21.80
2018-08-13T13:37:10.515Z,21.70
2018-08-13T13:38:16.526Z,21.70
2018-08-13T13:39:22.429Z,21.60
2018-08-13T13:40:27.166Z,21.60
2018-08-13T13:41:32.297Z,21.60
2018-08-13T13:42:37.744Z,21.60
2018-08-13T13:43:42.921Z,21.60
2018-08-13T13:44:48.004Z,21.70
2018-08-13T13:45:54.560Z,21.80
2018-08-13T13:46:59.352Z,21.70
2018-08-13T13:48:05.923Z,21.70
2018-08-13T13:49:10.905Z,21.70
2018-08-13T13:50:16.851Z,21.80
2018-08-13T13:51:21.842Z,21.80
2018-08-13T13:52:28.085Z,21.80
2018-08-13T13:53:33.469Z,21.90
2018-08-13T13:54:38.314Z,22.00
2018-08-13T13:55:43.175Z,22.00
2018-08-13T13:56:48.173Z,22.10
2018-08-13T13:57:52.884Z,22.10
2018-08-13T13:58:57.603Z,22.20
2018-08-13T14:00:03.776Z,22.20
2018-08-13T14:01:10.530Z,22.30
2018-08-13T14:02:15.392Z,22.30
2018-08-13T14:03:20.095Z,22.40
2018-08-13T14:04:24.788Z,22.40
2018-08-13T14:05:29.593Z,22.50
2018-08-13T14:06:34.526Z,22.40
2018-08-13T14:07:39.221Z,22.50
2018-08-13T14:08:45.780Z,22.50
2018-08-13T14:09:50.873Z,22.60
2018-08-13T14:10:55.694Z,22.70
2018-08-13T14:12:00.573Z,22.70
2018-08-13T14:13:06.075Z,22.80